sensor_id;sensor_type;location;lat;lon;timestamp;P1;durP1;ratioP1;P2;durP2;ratioP2
43086;SDS011;28708;52.224;6.924;2022-11-20T00:01:16;60.47;;;31.83;;
43086;SDS011;28708;52.224;6.924;2022-11-20T00:03:44;87.50;;;42.03;;
43086;SDS011;28708;52.224;6.924;2022-11-20T00:06:11;61.70;;;32.07;;
43086;SDS011;28708;52.224;6.924;2022-11-20T00:08:38;67.40;;;33.93;;
43086;SDS011;28708;52.224;6.924;2022-11-20T00:11:08;57.30;;;29.17;;
43086;SDS011;28708;52.224;6.924;2022-11-20T00:13:36;41.73;;;23.17;;
43086;SDS011;28708;52.224;6.924;2022-11-20T00:16:03;41.50;;;23.47;;
43086;SDS011;28708;52.224;6.924;2022-11-20T00:18:30;35.83;;;21.80;;
43086;SDS011;28708;52.224;6.924;2022-11-20T00:21:17;38.53;;;21.37;;
43086;SDS011;28708;52.224;6.924;2022-11-20T00:23:47;39.73;;;23.30;;
43086;SDS011;28708;52.224;6.924;2022-11-20T00:26:15;42.83;;;24.07;;
43086;SDS011;28708;52.224;6.924;2022-11-20T00:28:42;38.43;;;22.70;;
43086;SDS011;28708;52.224;6.924;2022-11-20T00:31:13;42.03;;;22.10;;
43086;SDS011;28708;52.224;6.924;2022-11-20T00:33:40;37.10;;;21.23;;
43086;SDS011;28708;52.224;6.924;2022-11-20T00:36:08;54.67;;;29.27;;
43086;SDS011;28708;52.224;6.924;2022-11-20T00:38:44;53.17;;;29.87;;
43086;SDS011;28708;52.224;6.924;2022-11-20T00:41:11;44.50;;;27.13;;
43086;SDS011;28708;52.224;6.924;2022-11-20T00:43:38;40.87;;;23.23;;
43086;SDS011;28708;52.224;6.924;2022-11-20T00:46:05;34.93;;;20.70;;
43086;SDS011;28708;52.224;6.924;2022-11-20T00:48:34;36.88;;;20.48;;
43086;SDS011;28708;52.224;6.924;2022-11-20T00:50:59;36.50;;;19.80;;
43086;SDS011;28708;52.224;6.924;2022-11-20T00:53:25;31.03;;;18.73;;
43086;SDS011;28708;52.224;6.924;2022-11-20T00:55:55;30.10;;;18.97;;
43086;SDS011;28708;52.224;6.924;2022-11-20T00:58:22;42.47;;;24.33;;
43086;SDS011;28708;52.224;6.924;2022-11-20T01:00:49;54.87;;;27.93;;
43086;SDS011;28708;52.224;6.924;2022-11-20T01:03:15;48.83;;;26.67;;
43086;SDS011;28708;52.224;6.924;2022-11-20T01:05:43;50.07;;;27.23;;
43086;SDS011;28708;52.224;6.924;2022-11-20T01:08:09;46.73;;;24.43;;
43086;SDS011;28708;52.224;6.924;2022-11-20T01:10:35;52.27;;;26.37;;
43086;SDS011;28708;52.224;6.924;2022-11-20T01:13:01;36.23;;;20.70;;
43086;SDS011;28708;52.224;6.924;2022-11-20T01:15:45;40.40;;;21.70;;
43086;SDS011;28708;52.224;6.924;2022-11-20T01:18:11;38.23;;;20.80;;
43086;SDS011;28708;52.224;6.924;2022-11-20T01:20:37;41.73;;;24.43;;
43086;SDS011;28708;52.224;6.924;2022-11-20T01:23:02;32.80;;;19.57;;
43086;SDS011;28708;52.224;6.924;2022-11-20T01:25:28;35.17;;;20.83;;
43086;SDS011;28708;52.224;6.924;2022-11-20T01:27:54;34.40;;;20.50;;
43086;SDS011;28708;52.224;6.924;2022-11-20T01:30:20;32.50;;;19.80;;
43086;SDS011;28708;52.224;6.924;2022-11-20T01:32:45;33.27;;;18.93;;
43086;SDS011;28708;52.224;6.924;2022-11-20T01:35:11;36.37;;;19.20;;
43086;SDS011;28708;52.224;6.924;2022-11-20T01:37:37;37.07;;;19.70;;
43086;SDS011;28708;52.224;6.924;2022-11-20T01:40:02;33.43;;;19.50;;
43086;SDS011;28708;52.224;6.924;2022-11-20T01:42:28;33.73;;;18.97;;
43086;SDS011;28708;52.224;6.924;2022-11-20T01:48:09;31.73;;;19.00;;
43086;SDS011;28708;52.224;6.924;2022-11-20T01:50:35;39.20;;;21.70;;
43086;SDS011;28708;52.224;6.924;2022-11-20T01:53:02;37.73;;;22.27;;
43086;SDS011;28708;52.224;6.924;2022-11-20T01:55:33;38.27;;;23.97;;
43086;SDS011;28708;52.224;6.924;2022-11-20T02:00:28;36.30;;;22.33;;
43086;SDS011;28708;52.224;6.924;2022-11-20T02:02:58;35.23;;;22.07;;
43086;SDS011;28708;52.224;6.924;2022-11-20T02:05:37;37.00;;;20.53;;
43086;SDS011;28708;52.224;6.924;2022-11-20T02:08:10;36.27;;;22.23;;
43086;SDS011;28708;52.224;6.924;2022-11-20T02:10:37;36.17;;;21.37;;
43086;SDS011;28708;52.224;6.924;2022-11-20T02:13:03;39.23;;;21.70;;
43086;SDS011;28708;52.224;6.924;2022-11-20T02:15:47;34.67;;;21.73;;
43086;SDS011;28708;52.224;6.924;2022-11-20T02:18:14;36.83;;;23.30;;
43086;SDS011;28708;52.224;6.924;2022-11-20T02:20:44;38.33;;;22.70;;
43086;SDS011;28708;52.224;6.924;2022-11-20T02:23:12;42.27;;;24.77;;
43086;SDS011;28708;52.224;6.924;2022-11-20T02:25:58;39.83;;;23.37;;
43086;SDS011;28708;52.224;6.924;2022-11-20T02:28:27;36.80;;;21.87;;
43086;SDS011;28708;52.224;6.924;2022-11-20T02:30:52;33.73;;;19.80;;
43086;SDS011;28708;52.224;6.924;2022-11-20T02:33:18;35.17;;;20.60;;
43086;SDS011;28708;52.224;6.924;2022-11-20T02:35:45;29.20;;;18.30;;
43086;SDS011;28708;52.224;6.924;2022-11-20T02:38:11;33.20;;;19.03;;
43086;SDS011;28708;52.224;6.924;2022-11-20T02:40:39;32.97;;;19.87;;
43086;SDS011;28708;52.224;6.924;2022-11-20T02:43:05;28.47;;;18.47;;
43086;SDS011;28708;52.224;6.924;2022-11-20T02:45:31;32.40;;;18.43;;
43086;SDS011;28708;52.224;6.924;2022-11-20T02:47:56;28.70;;;18.07;;
43086;SDS011;28708;52.224;6.924;2022-11-20T02:50:22;38.83;;;21.53;;
43086;SDS011;28708;52.224;6.924;2022-11-20T02:52:48;45.47;;;22.90;;
43086;SDS011;28708;52.224;6.924;2022-11-20T02:55:13;35.43;;;20.50;;
43086;SDS011;28708;52.224;6.924;2022-11-20T02:57:39;30.70;;;18.77;;
43086;SDS011;28708;52.224;6.924;2022-11-20T03:00:05;38.27;;;20.00;;
43086;SDS011;28708;52.224;6.924;2022-11-20T03:02:31;30.97;;;18.60;;
43086;SDS011;28708;52.224;6.924;2022-11-20T03:04:58;32.47;;;18.73;;
43086;SDS011;28708;52.224;6.924;2022-11-20T03:07:23;29.63;;;17.67;;
43086;SDS011;28708;52.224;6.924;2022-11-20T03:09:49;31.33;;;18.30;;
43086;SDS011;28708;52.224;6.924;2022-11-20T03:12:15;31.07;;;18.37;;
43086;SDS011;28708;52.224;6.924;2022-11-20T03:14:40;32.30;;;18.47;;
43086;SDS011;28708;52.224;6.924;2022-11-20T03:17:06;33.37;;;17.97;;
43086;SDS011;28708;52.224;6.924;2022-11-20T03:19:32;33.70;;;18.90;;
43086;SDS011;28708;52.224;6.924;2022-11-20T03:21:57;34.77;;;19.07;;
43086;SDS011;28708;52.224;6.924;2022-11-20T03:24:23;30.93;;;18.83;;
43086;SDS011;28708;52.224;6.924;2022-11-20T03:26:49;31.83;;;18.63;;
43086;SDS011;28708;52.224;6.924;2022-11-20T03:29:14;32.77;;;18.33;;
43086;SDS011;28708;52.224;6.924;2022-11-20T03:31:40;27.27;;;16.83;;
43086;SDS011;28708;52.224;6.924;2022-11-20T03:34:06;30.80;;;18.30;;
43086;SDS011;28708;52.224;6.924;2022-11-20T03:36:34;29.05;;;17.55;;
43086;SDS011;28708;52.224;6.924;2022-11-20T03:39:00;28.63;;;17.63;;
43086;SDS011;28708;52.224;6.924;2022-11-20T03:41:27;29.83;;;17.87;;
43086;SDS011;28708;52.224;6.924;2022-11-20T03:43:58;30.87;;;18.57;;
43086;SDS011;28708;52.224;6.924;2022-11-20T03:46:27;32.65;;;18.05;;
43086;SDS011;28708;52.224;6.924;2022-11-20T03:48:54;33.07;;;17.80;;
43086;SDS011;28708;52.224;6.924;2022-11-20T03:51:23;30.03;;;17.30;;
43086;SDS011;28708;52.224;6.924;2022-11-20T03:53:59;30.13;;;17.73;;
43086;SDS011;28708;52.224;6.924;2022-11-20T03:56:28;30.75;;;18.02;;
43086;SDS011;28708;52.224;6.924;2022-11-20T03:58:54;29.50;;;18.23;;
43086;SDS011;28708;52.224;6.924;2022-11-20T04:01:21;30.53;;;18.40;;
43086;SDS011;28708;52.224;6.924;2022-11-20T04:03:48;30.92;;;18.40;;
43086;SDS011;28708;52.224;6.924;2022-11-20T04:06:15;30.75;;;18.73;;
43086;SDS011;28708;52.224;6.924;2022-11-20T04:08:45;30.40;;;17.70;;
43086;SDS011;28708;52.224;6.924;2022-11-20T04:11:15;29.23;;;17.13;;
43086;SDS011;28708;52.224;6.924;2022-11-20T04:13:45;29.83;;;18.83;;
43086;SDS011;28708;52.224;6.924;2022-11-20T04:16:13;26.63;;;16.75;;
43086;SDS011;28708;52.224;6.924;2022-11-20T04:18:39;30.70;;;18.07;;
43086;SDS011;28708;52.224;6.924;2022-11-20T04:21:04;26.43;;;16.50;;
43086;SDS011;28708;52.224;6.924;2022-11-20T04:23:31;30.33;;;17.40;;
43086;SDS011;28708;52.224;6.924;2022-11-20T04:26:15;29.35;;;17.02;;
43086;SDS011;28708;52.224;6.924;2022-11-20T04:28:41;27.35;;;16.77;;
43086;SDS011;28708;52.224;6.924;2022-11-20T04:31:10;29.23;;;17.13;;
43086;SDS011;28708;52.224;6.924;2022-11-20T04:33:38;29.67;;;16.75;;
43086;SDS011;28708;52.224;6.924;2022-11-20T04:36:06;30.58;;;17.98;;
43086;SDS011;28708;52.224;6.924;2022-11-20T04:38:39;26.48;;;16.67;;
43086;SDS011;28708;52.224;6.924;2022-11-20T04:41:06;31.67;;;18.27;;
43086;SDS011;28708;52.224;6.924;2022-11-20T04:43:33;29.75;;;16.33;;
43086;SDS011;28708;52.224;6.924;2022-11-20T04:45:59;29.27;;;17.40;;
43086;SDS011;28708;52.224;6.924;2022-11-20T04:48:26;28.13;;;16.67;;
43086;SDS011;28708;52.224;6.924;2022-11-20T04:50:53;29.60;;;17.40;;
43086;SDS011;28708;52.224;6.924;2022-11-20T04:53:19;30.48;;;16.52;;
43086;SDS011;28708;52.224;6.924;2022-11-20T04:55:46;27.92;;;17.13;;
43086;SDS011;28708;52.224;6.924;2022-11-20T04:58:12;28.05;;;16.80;;
43086;SDS011;28708;52.224;6.924;2022-11-20T05:00:38;28.05;;;17.48;;
43086;SDS011;28708;52.224;6.924;2022-11-20T05:03:04;29.02;;;16.05;;
43086;SDS011;28708;52.224;6.924;2022-11-20T05:05:29;26.80;;;16.57;;
43086;SDS011;28708;52.224;6.924;2022-11-20T05:07:56;26.97;;;16.13;;
43086;SDS011;28708;52.224;6.924;2022-11-20T05:10:22;29.63;;;17.85;;
43086;SDS011;28708;52.224;6.924;2022-11-20T05:12:49;29.55;;;18.83;;
43086;SDS011;28708;52.224;6.924;2022-11-20T05:15:14;29.30;;;17.23;;
43086;SDS011;28708;52.224;6.924;2022-11-20T05:17:40;28.87;;;17.93;;
43086;SDS011;28708;52.224;6.924;2022-11-20T05:20:06;30.57;;;18.37;;
43086;SDS011;28708;52.224;6.924;2022-11-20T05:22:32;32.60;;;17.85;;
43086;SDS011;28708;52.224;6.924;2022-11-20T05:24:57;31.10;;;18.43;;
43086;SDS011;28708;52.224;6.924;2022-11-20T05:27:23;29.23;;;16.80;;
43086;SDS011;28708;52.224;6.924;2022-11-20T05:29:49;28.60;;;16.57;;
43086;SDS011;28708;52.224;6.924;2022-11-20T05:32:14;30.33;;;17.13;;
43086;SDS011;28708;52.224;6.924;2022-11-20T05:34:40;28.33;;;17.57;;
43086;SDS011;28708;52.224;6.924;2022-11-20T05:37:05;28.37;;;17.10;;
43086;SDS011;28708;52.224;6.924;2022-11-20T05:39:31;29.43;;;17.80;;
43086;SDS011;28708;52.224;6.924;2022-11-20T05:41:58;29.23;;;17.67;;
43086;SDS011;28708;52.224;6.924;2022-11-20T05:44:42;29.38;;;17.67;;
43086;SDS011;28708;52.224;6.924;2022-11-20T05:47:07;29.43;;;16.77;;
43086;SDS011;28708;52.224;6.924;2022-11-20T05:49:33;30.83;;;16.97;;
43086;SDS011;28708;52.224;6.924;2022-11-20T05:51:58;29.67;;;16.53;;
43086;SDS011;28708;52.224;6.924;2022-11-20T05:54:24;32.90;;;17.60;;
43086;SDS011;28708;52.224;6.924;2022-11-20T05:56:50;33.23;;;18.17;;
43086;SDS011;28708;52.224;6.924;2022-11-20T05:59:15;35.80;;;19.40;;
43086;SDS011;28708;52.224;6.924;2022-11-20T06:01:41;29.00;;;17.23;;
43086;SDS011;28708;52.224;6.924;2022-11-20T06:04:07;28.63;;;17.38;;
43086;SDS011;28708;52.224;6.924;2022-11-20T06:06:32;32.13;;;18.53;;
43086;SDS011;28708;52.224;6.924;2022-11-20T06:08:58;32.97;;;18.87;;
43086;SDS011;28708;52.224;6.924;2022-11-20T06:11:24;30.93;;;18.90;;
43086;SDS011;28708;52.224;6.924;2022-11-20T06:13:50;31.97;;;18.53;;
43086;SDS011;28708;52.224;6.924;2022-11-20T06:16:17;31.10;;;19.17;;
43086;SDS011;28708;52.224;6.924;2022-11-20T06:18:44;29.05;;;17.50;;
43086;SDS011;28708;52.224;6.924;2022-11-20T06:21:11;33.03;;;18.83;;
43086;SDS011;28708;52.224;6.924;2022-11-20T06:23:39;32.90;;;19.23;;
43086;SDS011;28708;52.224;6.924;2022-11-20T06:26:13;31.20;;;18.33;;
43086;SDS011;28708;52.224;6.924;2022-11-20T06:28:40;33.13;;;18.45;;
43086;SDS011;28708;52.224;6.924;2022-11-20T06:31:06;36.33;;;20.70;;
43086;SDS011;28708;52.224;6.924;2022-11-20T06:33:32;31.73;;;18.33;;
43086;SDS011;28708;52.224;6.924;2022-11-20T06:35:58;33.53;;;18.83;;
43086;SDS011;28708;52.224;6.924;2022-11-20T06:38:25;32.55;;;19.45;;
43086;SDS011;28708;52.224;6.924;2022-11-20T06:40:52;29.70;;;18.58;;
43086;SDS011;28708;52.224;6.924;2022-11-20T06:43:18;36.83;;;18.97;;
43086;SDS011;28708;52.224;6.924;2022-11-20T06:45:44;36.83;;;21.25;;
43086;SDS011;28708;52.224;6.924;2022-11-20T06:48:09;35.90;;;22.17;;
43086;SDS011;28708;52.224;6.924;2022-11-20T06:50:38;35.50;;;21.03;;
43086;SDS011;28708;52.224;6.924;2022-11-20T06:53:04;32.17;;;19.63;;
43086;SDS011;28708;52.224;6.924;2022-11-20T06:55:30;32.60;;;19.60;;
43086;SDS011;28708;52.224;6.924;2022-11-20T06:57:57;35.67;;;20.60;;
43086;SDS011;28708;52.224;6.924;2022-11-20T07:00:22;31.97;;;18.93;;
43086;SDS011;28708;52.224;6.924;2022-11-20T07:02:48;34.10;;;19.40;;
43086;SDS011;28708;52.224;6.924;2022-11-20T07:05:14;30.73;;;20.23;;
43086;SDS011;28708;52.224;6.924;2022-11-20T07:07:40;38.83;;;19.87;;
43086;SDS011;28708;52.224;6.924;2022-11-20T07:10:06;33.37;;;19.67;;
43086;SDS011;28708;52.224;6.924;2022-11-20T07:12:32;32.58;;;19.00;;
43086;SDS011;28708;52.224;6.924;2022-11-20T07:14:58;38.63;;;21.20;;
43086;SDS011;28708;52.224;6.924;2022-11-20T07:17:23;31.23;;;19.90;;
43086;SDS011;28708;52.224;6.924;2022-11-20T07:19:49;37.53;;;20.80;;
43086;SDS011;28708;52.224;6.924;2022-11-20T07:22:14;32.03;;;19.50;;
43086;SDS011;28708;52.224;6.924;2022-11-20T07:24:40;34.37;;;19.53;;
43086;SDS011;28708;52.224;6.924;2022-11-20T07:27:05;32.50;;;19.30;;
43086;SDS011;28708;52.224;6.924;2022-11-20T07:29:31;34.17;;;20.23;;
43086;SDS011;28708;52.224;6.924;2022-11-20T07:31:57;33.63;;;19.40;;
43086;SDS011;28708;52.224;6.924;2022-11-20T07:34:22;35.87;;;21.23;;
43086;SDS011;28708;52.224;6.924;2022-11-20T07:36:48;36.20;;;21.53;;
43086;SDS011;28708;52.224;6.924;2022-11-20T07:39:14;33.97;;;21.20;;
43086;SDS011;28708;52.224;6.924;2022-11-20T07:41:39;34.77;;;21.13;;
43086;SDS011;28708;52.224;6.924;2022-11-20T07:44:05;33.70;;;21.27;;
43086;SDS011;28708;52.224;6.924;2022-11-20T07:46:31;34.73;;;21.77;;
43086;SDS011;28708;52.224;6.924;2022-11-20T07:48:56;32.17;;;20.77;;
43086;SDS011;28708;52.224;6.924;2022-11-20T07:51:22;34.73;;;21.30;;
43086;SDS011;28708;52.224;6.924;2022-11-20T07:53:52;37.87;;;22.27;;
43086;SDS011;28708;52.224;6.924;2022-11-20T07:56:18;37.47;;;23.20;;
43086;SDS011;28708;52.224;6.924;2022-11-20T07:58:43;36.23;;;23.10;;
43086;SDS011;28708;52.224;6.924;2022-11-20T08:01:09;36.70;;;23.10;;
43086;SDS011;28708;52.224;6.924;2022-11-20T08:03:35;38.40;;;23.20;;
43086;SDS011;28708;52.224;6.924;2022-11-20T08:06:04;40.07;;;24.80;;
43086;SDS011;28708;52.224;6.924;2022-11-20T08:08:30;36.43;;;22.97;;
43086;SDS011;28708;52.224;6.924;2022-11-20T08:10:56;40.27;;;24.57;;
43086;SDS011;28708;52.224;6.924;2022-11-20T08:13:42;36.37;;;22.73;;
43086;SDS011;28708;52.224;6.924;2022-11-20T08:16:27;51.40;;;26.63;;
43086;SDS011;28708;52.224;6.924;2022-11-20T08:18:53;46.53;;;27.67;;
43086;SDS011;28708;52.224;6.924;2022-11-20T08:21:19;49.80;;;28.13;;
43086;SDS011;28708;52.224;6.924;2022-11-20T08:23:44;47.37;;;27.53;;
43086;SDS011;28708;52.224;6.924;2022-11-20T08:26:10;44.53;;;25.37;;
43086;SDS011;28708;52.224;6.924;2022-11-20T08:28:39;44.73;;;25.17;;
43086;SDS011;28708;52.224;6.924;2022-11-20T08:31:04;46.50;;;26.83;;
43086;SDS011;28708;52.224;6.924;2022-11-20T08:33:30;42.53;;;24.87;;
43086;SDS011;28708;52.224;6.924;2022-11-20T08:35:58;39.50;;;23.60;;
43086;SDS011;28708;52.224;6.924;2022-11-20T08:38:25;43.30;;;25.83;;
43086;SDS011;28708;52.224;6.924;2022-11-20T08:40:50;43.87;;;25.33;;
43086;SDS011;28708;52.224;6.924;2022-11-20T08:43:34;40.33;;;25.13;;
43086;SDS011;28708;52.224;6.924;2022-11-20T08:46:00;44.23;;;25.70;;
43086;SDS011;28708;52.224;6.924;2022-11-20T08:48:26;44.70;;;26.07;;
43086;SDS011;28708;52.224;6.924;2022-11-20T08:50:51;46.37;;;27.97;;
43086;SDS011;28708;52.224;6.924;2022-11-20T08:53:17;46.57;;;26.73;;
43086;SDS011;28708;52.224;6.924;2022-11-20T08:55:42;44.93;;;25.73;;
43086;SDS011;28708;52.224;6.924;2022-11-20T08:58:08;43.97;;;25.30;;
43086;SDS011;28708;52.224;6.924;2022-11-20T09:00:34;41.77;;;25.17;;
43086;SDS011;28708;52.224;6.924;2022-11-20T09:03:00;42.60;;;25.40;;
43086;SDS011;28708;52.224;6.924;2022-11-20T09:05:26;40.53;;;24.83;;
43086;SDS011;28708;52.224;6.924;2022-11-20T09:07:52;39.43;;;24.10;;
43086;SDS011;28708;52.224;6.924;2022-11-20T09:10:24;41.07;;;24.93;;
43086;SDS011;28708;52.224;6.924;2022-11-20T09:12:50;42.60;;;23.80;;
43086;SDS011;28708;52.224;6.924;2022-11-20T09:15:16;43.03;;;24.97;;
43086;SDS011;28708;52.224;6.924;2022-11-20T09:17:42;40.43;;;23.63;;
43086;SDS011;28708;52.224;6.924;2022-11-20T09:20:18;40.00;;;25.10;;
43086;SDS011;28708;52.224;6.924;2022-11-20T09:22:44;36.27;;;22.27;;
43086;SDS011;28708;52.224;6.924;2022-11-20T09:25:10;33.63;;;22.03;;
43086;SDS011;28708;52.224;6.924;2022-11-20T09:27:36;35.93;;;22.90;;
43086;SDS011;28708;52.224;6.924;2022-11-20T09:30:01;28.50;;;17.80;;
43086;SDS011;28708;52.224;6.924;2022-11-20T09:32:28;26.83;;;17.50;;
43086;SDS011;28708;52.224;6.924;2022-11-20T09:34:53;26.57;;;18.57;;
43086;SDS011;28708;52.224;6.924;2022-11-20T09:37:19;27.47;;;18.03;;
43086;SDS011;28708;52.224;6.924;2022-11-20T09:39:45;27.87;;;18.00;;
43086;SDS011;28708;52.224;6.924;2022-11-20T09:50:49;28.43;;;19.23;;
43086;SDS011;28708;52.224;6.924;2022-11-20T09:53:35;27.13;;;16.83;;
43086;SDS011;28708;52.224;6.924;2022-11-20T09:56:25;29.43;;;19.03;;
43086;SDS011;28708;52.224;6.924;2022-11-20T09:58:51;30.30;;;17.97;;
43086;SDS011;28708;52.224;6.924;2022-11-20T10:01:20;28.23;;;18.10;;
43086;SDS011;28708;52.224;6.924;2022-11-20T10:03:58;27.87;;;19.30;;
43086;SDS011;28708;52.224;6.924;2022-11-20T10:06:34;28.60;;;19.37;;
43086;SDS011;28708;52.224;6.924;2022-11-20T10:09:13;27.27;;;17.80;;
43086;SDS011;28708;52.224;6.924;2022-11-20T10:14:20;27.55;;;17.38;;
43086;SDS011;28708;52.224;6.924;2022-11-20T10:20:12;24.07;;;16.27;;
43086;SDS011;28708;52.224;6.924;2022-11-20T10:25:43;23.13;;;15.67;;
43086;SDS011;28708;52.224;6.924;2022-11-20T10:31:00;26.23;;;17.10;;
43086;SDS011;28708;52.224;6.924;2022-11-20T10:33:50;22.75;;;15.85;;
43086;SDS011;28708;52.224;6.924;2022-11-20T10:36:28;25.52;;;16.70;;
43086;SDS011;28708;52.224;6.924;2022-11-20T10:39:01;22.83;;;15.68;;
43086;SDS011;28708;52.224;6.924;2022-11-20T10:41:38;25.33;;;16.53;;
43086;SDS011;28708;52.224;6.924;2022-11-20T10:44:19;26.30;;;16.07;;
43086;SDS011;28708;52.224;6.924;2022-11-20T10:47:08;23.17;;;15.45;;
43086;SDS011;28708;52.224;6.924;2022-11-20T10:49:38;24.43;;;15.70;;
43086;SDS011;28708;52.224;6.924;2022-11-20T10:52:25;20.47;;;14.37;;
43086;SDS011;28708;52.224;6.924;2022-11-20T11:01:19;22.00;;;14.63;;
43086;SDS011;28708;52.224;6.924;2022-11-20T11:03:49;24.47;;;14.83;;
43086;SDS011;28708;52.224;6.924;2022-11-20T11:06:22;20.67;;;13.80;;
43086;SDS011;28708;52.224;6.924;2022-11-20T11:09:25;22.30;;;14.93;;
43086;SDS011;28708;52.224;6.924;2022-11-20T11:12:06;20.33;;;13.67;;
43086;SDS011;28708;52.224;6.924;2022-11-20T11:17:18;22.37;;;14.97;;
43086;SDS011;28708;52.224;6.924;2022-11-20T11:20:02;24.57;;;15.40;;
43086;SDS011;28708;52.224;6.924;2022-11-20T11:22:31;25.73;;;16.30;;
43086;SDS011;28708;52.224;6.924;2022-11-20T11:25:00;24.73;;;16.57;;
43086;SDS011;28708;52.224;6.924;2022-11-20T11:27:25;24.70;;;16.70;;
43086;SDS011;28708;52.224;6.924;2022-11-20T11:30:01;25.80;;;16.70;;
43086;SDS011;28708;52.224;6.924;2022-11-20T11:32:36;27.23;;;18.37;;
43086;SDS011;28708;52.224;6.924;2022-11-20T11:35:02;28.07;;;17.97;;
43086;SDS011;28708;52.224;6.924;2022-11-20T11:37:43;27.60;;;17.57;;
43086;SDS011;28708;52.224;6.924;2022-11-20T11:40:10;27.23;;;17.47;;
43086;SDS011;28708;52.224;6.924;2022-11-20T11:42:41;27.33;;;17.73;;
43086;SDS011;28708;52.224;6.924;2022-11-20T11:45:14;28.80;;;18.23;;
43086;SDS011;28708;52.224;6.924;2022-11-20T11:52:38;29.67;;;18.93;;
43086;SDS011;28708;52.224;6.924;2022-11-20T11:55:23;29.35;;;17.77;;
43086;SDS011;28708;52.224;6.924;2022-11-20T12:03:36;26.02;;;17.17;;
43086;SDS011;28708;52.224;6.924;2022-11-20T12:06:11;26.33;;;17.27;;
43086;SDS011;28708;52.224;6.924;2022-11-20T12:08:43;27.20;;;17.57;;
43086;SDS011;28708;52.224;6.924;2022-11-20T12:13:58;27.27;;;15.73;;
43086;SDS011;28708;52.224;6.924;2022-11-20T12:16:30;24.27;;;14.43;;
43086;SDS011;28708;52.224;6.924;2022-11-20T12:19:00;21.13;;;14.47;;
43086;SDS011;28708;52.224;6.924;2022-11-20T12:21:31;20.03;;;13.10;;
43086;SDS011;28708;52.224;6.924;2022-11-20T12:27:21;21.37;;;13.53;;
43086;SDS011;28708;52.224;6.924;2022-11-20T12:30:07;19.13;;;12.27;;
43086;SDS011;28708;52.224;6.924;2022-11-20T12:35:39;19.93;;;13.07;;
43086;SDS011;28708;52.224;6.924;2022-11-20T12:43:37;22.87;;;12.23;;
43086;SDS011;28708;52.224;6.924;2022-11-20T12:46:38;20.43;;;12.20;;
43086;SDS011;28708;52.224;6.924;2022-11-20T12:52:05;20.17;;;13.43;;
43086;SDS011;28708;52.224;6.924;2022-11-20T12:54:46;21.67;;;13.10;;
43086;SDS011;28708;52.224;6.924;2022-11-20T13:06:00;20.77;;;14.10;;
43086;SDS011;28708;52.224;6.924;2022-11-20T13:08:40;24.63;;;15.17;;
43086;SDS011;28708;52.224;6.924;2022-11-20T13:11:14;23.07;;;15.30;;
43086;SDS011;28708;52.224;6.924;2022-11-20T13:14:18;21.97;;;14.43;;
43086;SDS011;28708;52.224;6.924;2022-11-20T13:19:41;23.43;;;14.90;;
43086;SDS011;28708;52.224;6.924;2022-11-20T13:22:27;24.60;;;15.77;;
43086;SDS011;28708;52.224;6.924;2022-11-20T13:24:54;30.93;;;18.00;;
43086;SDS011;28708;52.224;6.924;2022-11-20T13:27:21;32.33;;;18.90;;
43086;SDS011;28708;52.224;6.924;2022-11-20T13:30:33;27.43;;;15.83;;
43086;SDS011;28708;52.224;6.924;2022-11-20T13:32:47;26.10;;;17.07;;
43086;SDS011;28708;52.224;6.924;2022-11-20T13:35:32;28.63;;;17.40;;
43086;SDS011;28708;52.224;6.924;2022-11-20T13:38:09;41.53;;;25.33;;
43086;SDS011;28708;52.224;6.924;2022-11-20T13:40:36;50.47;;;30.35;;
43086;SDS011;28708;52.224;6.924;2022-11-20T13:46:07;41.43;;;24.57;;
43086;SDS011;28708;52.224;6.924;2022-11-20T13:48:44;50.17;;;28.23;;
43086;SDS011;28708;52.224;6.924;2022-11-20T13:51:24;38.27;;;22.10;;
43086;SDS011;28708;52.224;6.924;2022-11-20T13:54:16;51.83;;;28.60;;
43086;SDS011;28708;52.224;6.924;2022-11-20T13:56:54;43.07;;;24.33;;
43086;SDS011;28708;52.224;6.924;2022-11-20T13:59:50;32.33;;;18.53;;
43086;SDS011;28708;52.224;6.924;2022-11-20T14:02:19;29.60;;;18.17;;
43086;SDS011;28708;52.224;6.924;2022-11-20T14:04:51;28.40;;;17.90;;
43086;SDS011;28708;52.224;6.924;2022-11-20T14:07:19;32.30;;;19.10;;
43086;SDS011;28708;52.224;6.924;2022-11-20T14:09:51;38.27;;;20.07;;
43086;SDS011;28708;52.224;6.924;2022-11-20T14:12:20;34.93;;;21.60;;
43086;SDS011;28708;52.224;6.924;2022-11-20T14:14:56;37.50;;;20.10;;
43086;SDS011;28708;52.224;6.924;2022-11-20T14:19:54;37.20;;;22.90;;
43086;SDS011;28708;52.224;6.924;2022-11-20T14:22:25;35.35;;;19.58;;
43086;SDS011;28708;52.224;6.924;2022-11-20T14:25:18;36.97;;;22.13;;
43086;SDS011;28708;52.224;6.924;2022-11-20T14:27:37;47.63;;;26.57;;
43086;SDS011;28708;52.224;6.924;2022-11-20T14:30:05;37.30;;;22.93;;
43086;SDS011;28708;52.224;6.924;2022-11-20T14:32:39;36.20;;;22.20;;
43086;SDS011;28708;52.224;6.924;2022-11-20T14:35:09;39.83;;;22.70;;
43086;SDS011;28708;52.224;6.924;2022-11-20T14:37:45;41.60;;;24.30;;
43086;SDS011;28708;52.224;6.924;2022-11-20T14:40:24;50.13;;;27.80;;
43086;SDS011;28708;52.224;6.924;2022-11-20T14:43:00;43.83;;;26.23;;
43086;SDS011;28708;52.224;6.924;2022-11-20T14:45:26;47.17;;;25.47;;
43086;SDS011;28708;52.224;6.924;2022-11-20T14:47:53;40.93;;;22.93;;
43086;SDS011;28708;52.224;6.924;2022-11-20T14:50:22;38.63;;;23.37;;
43086;SDS011;28708;52.224;6.924;2022-11-20T14:52:53;39.57;;;23.07;;
43086;SDS011;28708;52.224;6.924;2022-11-20T14:55:31;35.87;;;22.60;;
43086;SDS011;28708;52.224;6.924;2022-11-20T14:58:02;38.43;;;21.63;;
43086;SDS011;28708;52.224;6.924;2022-11-20T15:00:30;41.90;;;25.27;;
43086;SDS011;28708;52.224;6.924;2022-11-20T15:02:57;43.93;;;23.67;;
43086;SDS011;28708;52.224;6.924;2022-11-20T15:05:25;74.07;;;42.57;;
43086;SDS011;28708;52.224;6.924;2022-11-20T15:08:08;191.17;;;88.10;;
43086;SDS011;28708;52.224;6.924;2022-11-20T15:10:35;106.70;;;51.70;;
43086;SDS011;28708;52.224;6.924;2022-11-20T15:13:05;76.20;;;45.23;;
43086;SDS011;28708;52.224;6.924;2022-11-20T15:15:41;39.40;;;24.13;;
43086;SDS011;28708;52.224;6.924;2022-11-20T15:20:58;44.43;;;27.43;;
43086;SDS011;28708;52.224;6.924;2022-11-20T15:23:27;39.53;;;23.05;;
43086;SDS011;28708;52.224;6.924;2022-11-20T15:25:53;41.97;;;25.07;;
43086;SDS011;28708;52.224;6.924;2022-11-20T15:28:22;44.13;;;26.57;;
43086;SDS011;28708;52.224;6.924;2022-11-20T15:30:54;39.37;;;22.43;;
43086;SDS011;28708;52.224;6.924;2022-11-20T15:33:21;43.13;;;24.27;;
43086;SDS011;28708;52.224;6.924;2022-11-20T15:35:47;43.57;;;25.63;;
43086;SDS011;28708;52.224;6.924;2022-11-20T15:38:12;70.40;;;39.60;;
43086;SDS011;28708;52.224;6.924;2022-11-20T15:40:38;68.17;;;43.10;;
43086;SDS011;28708;52.224;6.924;2022-11-20T15:43:04;42.33;;;25.17;;
43086;SDS011;28708;52.224;6.924;2022-11-20T15:45:33;53.23;;;31.50;;
43086;SDS011;28708;52.224;6.924;2022-11-20T15:48:08;43.93;;;24.93;;
43086;SDS011;28708;52.224;6.924;2022-11-20T15:50:46;42.83;;;24.97;;
43086;SDS011;28708;52.224;6.924;2022-11-20T15:53:17;46.73;;;27.37;;
43086;SDS011;28708;52.224;6.924;2022-11-20T15:55:43;45.03;;;26.77;;
43086;SDS011;28708;52.224;6.924;2022-11-20T15:58:09;43.73;;;25.37;;